Time;durP1;ratioP1;P1;durP2;ratioP2;P2;SDS_P1;SDS_P2;PMS_P1;PMS_P2;Temp;Humidity;BMP_temperature;BMP_pressure;BME280_temperature;BME280_humidity;BME280_pressure;Samples;Min_cycle;Max_cycle;Signal;HPM_P1;HPM_P2
2021/11/29 00:01:36;;;;;;;2.60;0.82;;;7.10;84.20;;;;;;5023918;28;20470;-83
2021/11/29 00:04:02;;;;;;;7.60;1.02;;;7.10;84.40;;;;;;5018164;28;20026;-83
2021/11/29 00:06:28;;;;;;;7.22;0.98;;;7.00;84.50;;;;;;5032186;28;20381;-83
2021/11/29 00:08:54;;;;;;;1.48;0.73;;;7.00;84.30;;;;;;5029424;28;20072;-83
2021/11/29 00:11:19;;;;;;;2.45;0.80;;;7.00;84.10;;;;;;5014495;28;20367;-83
2021/11/29 00:13:45;;;;;;;5.95;1.00;;;7.00;84.00;;;;;;5027324;28;20045;-82
2021/11/29 00:16:11;;;;;;;1.38;0.65;;;7.00;84.30;;;;;;5026211;28;20025;-83
2021/11/29 00:18:37;;;;;;;2.08;0.73;;;6.90;84.90;;;;;;5022515;28;20362;-83
2021/11/29 00:21:04;;;;;;;3.22;0.80;;;6.90;85.50;;;;;;5030092;28;20030;-83
2021/11/29 00:23:30;;;;;;;3.97;0.68;;;6.90;86.10;;;;;;5014087;28;20042;-83
2021/11/29 00:25:56;;;;;;;5.57;1.00;;;6.90;86.60;;;;;;5024578;28;20029;-83
2021/11/29 00:28:22;;;;;;;3.63;0.90;;;6.90;86.60;;;;;;5026404;28;20037;-83
2021/11/29 00:30:47;;;;;;;7.13;0.98;;;7.00;86.70;;;;;;5025500;28;20037;-84
2021/11/29 00:33:14;;;;;;;0.30;0.30;;;7.10;86.90;;;;;;5027086;28;20060;-82
2021/11/29 00:35:43;;;;;;;0.47;0.47;;;7.10;87.30;;;;;;5021726;28;20037;-83
2021/11/29 00:38:10;;;;;;;1.48;0.65;;;7.10;87.60;;;;;;5029464;28;20702;-83
2021/11/29 00:40:36;;;;;;;1.52;0.60;;;7.10;87.60;;;;;;5031295;28;20022;-82
2021/11/29 00:43:02;;;;;;;0.52;0.43;;;7.20;87.60;;;;;;5021569;28;20041;-83
2021/11/29 00:45:28;;;;;;;2.00;0.77;;;7.20;87.80;;;;;;5029804;28;20017;-83
2021/11/29 00:47:54;;;;;;;0.65;0.47;;;7.20;88.00;;;;;;5031528;28;20033;-83
2021/11/29 00:50:20;;;;;;;1.40;0.40;;;7.20;88.00;;;;;;5017217;28;20045;-83
2021/11/29 00:52:46;;;;;;;1.45;0.52;;;7.20;87.90;;;;;;5021641;28;20049;-82
2021/11/29 00:55:15;;;;;;;0.47;0.40;;;7.20;88.00;;;;;;5029804;28;20030;-83
2021/11/29 00:57:41;;;;;;;6.28;0.85;;;7.20;88.20;;;;;;5030222;28;20104;-83
2021/11/29 01:00:11;;;;;;;1.55;0.50;;;7.20;88.30;;;;;;5031001;28;20133;-83
2021/11/29 01:02:38;;;;;;;0.38;0.38;;;7.20;88.40;;;;;;5029686;28;20026;-83
2021/11/29 01:05:04;;;;;;;0.98;0.63;;;7.20;88.40;;;;;;5020402;28;20047;-83
2021/11/29 01:07:30;;;;;;;0.40;0.40;;;7.10;88.30;;;;;;5027400;28;20087;-83
2021/11/29 01:09:56;;;;;;;1.13;0.63;;;7.10;88.70;;;;;;5026886;28;20038;-82
2021/11/29 01:12:22;;;;;;;0.77;0.50;;;7.10;88.40;;;;;;5031066;28;20029;-83
2021/11/29 01:14:48;;;;;;;4.22;0.50;;;7.10;88.30;;;;;;5032104;28;20037;-83
2021/11/29 01:17:14;;;;;;;2.15;0.57;;;7.10;88.20;;;;;;5024574;28;20030;-82
2021/11/29 01:19:40;;;;;;;1.25;0.60;;;7.00;88.20;;;;;;5019143;28;20381;-82
2021/11/29 01:22:08;;;;;;;0.38;0.38;;;7.00;88.30;;;;;;5024089;28;20028;-82
2021/11/29 01:24:34;;;;;;;3.70;0.75;;;7.00;88.30;;;;;;5024065;28;20120;-82
2021/11/29 01:27:00;;;;;;;0.30;0.30;;;6.90;88.30;;;;;;5025153;28;20116;-82
2021/11/29 01:29:26;;;;;;;2.17;0.50;;;6.90;88.40;;;;;;5028128;28;20049;-82
2021/11/29 01:31:52;;;;;;;8.77;0.80;;;6.90;88.60;;;;;;5019648;28;20454;-82
2021/11/29 01:34:17;;;;;;;1.08;0.63;;;6.80;88.60;;;;;;5031660;28;20488;-82
2021/11/29 01:36:43;;;;;;;1.08;0.50;;;6.80;88.80;;;;;;5022341;28;20017;-81
2021/11/29 01:39:09;;;;;;;0.30;0.30;;;6.70;88.90;;;;;;5035132;28;20392;-82
2021/11/29 01:41:36;;;;;;;2.38;0.70;;;6.70;89.10;;;;;;5031669;28;20389;-82
2021/11/29 01:44:03;;;;;;;1.25;0.40;;;6.70;89.30;;;;;;5019219;28;20033;-81
2021/11/29 01:46:28;;;;;;;1.15;0.60;;;6.70;89.50;;;;;;5031347;28;20397;-82
2021/11/29 01:48:55;;;;;;;0.40;0.40;;;6.70;89.60;;;;;;5023713;28;20030;-82
2021/11/29 01:51:20;;;;;;;3.40;0.60;;;6.60;90.10;;;;;;5033635;28;20030;-81
2021/11/29 01:53:46;;;;;;;3.60;0.50;;;6.60;89.90;;;;;;5019083;28;20049;-78
2021/11/29 01:56:12;;;;;;;1.98;0.52;;;6.60;89.90;;;;;;5031783;28;20053;-82
2021/11/29 01:58:40;;;;;;;1.25;0.60;;;6.60;89.90;;;;;;5027943;28;20021;-81
2021/11/29 02:01:13;;;;;;;3.00;0.80;;;6.70;89.90;;;;;;5027700;28;20033;-81
2021/11/29 02:03:39;;;;;;;0.65;0.40;;;6.70;89.90;;;;;;5031085;28;20079;-86
2021/11/29 02:06:05;;;;;;;5.90;0.85;;;6.70;90.00;;;;;;5026740;28;20057;-81
2021/11/29 02:08:31;;;;;;;1.55;0.63;;;6.70;90.10;;;;;;5034278;28;20493;-82
2021/11/29 02:10:57;;;;;;;0.50;0.50;;;6.70;90.00;;;;;;5031578;28;20025;-80
2021/11/29 02:13:22;;;;;;;3.83;0.60;;;6.80;90.00;;;;;;5030261;28;20087;-80
2021/11/29 02:15:52;;;;;;;5.85;0.60;;;6.80;90.00;;;;;;5029049;28;20477;-82
2021/11/29 02:18:27;;;;;;;0.85;0.60;;;6.80;90.00;;;;;;5019552;28;20033;-81
2021/11/29 02:21:08;;;;;;;0.40;0.40;;;6.80;90.00;;;;;;5033434;28;20037;-81
2021/11/29 02:23:36;;;;;;;3.80;0.60;;;6.90;90.00;;;;;;5031922;28;20040;-81
2021/11/29 02:26:02;;;;;;;4.20;0.68;;;6.90;89.90;;;;;;5026830;28;20026;-81
2021/11/29 02:28:28;;;;;;;0.73;0.73;;;6.90;89.90;;;;;;5030139;28;20128;-82
2021/11/29 02:30:54;;;;;;;0.40;0.40;;;6.90;89.80;;;;;;5025975;28;20101;-80
2021/11/29 02:33:20;;;;;;;0.40;0.40;;;6.90;89.70;;;;;;5025437;28;20507;-81
2021/11/29 02:35:45;;;;;;;1.98;1.20;;;6.90;89.60;;;;;;5027264;28;20025;-81
2021/11/29 02:38:14;;;;;;;0.30;0.30;;;6.80;89.50;;;;;;5032156;28;20034;-81
2021/11/29 02:40:42;;;;;;;0.40;0.40;;;6.80;89.60;;;;;;5028106;28;20017;-82
2021/11/29 02:43:07;;;;;;;0.50;0.50;;;6.80;89.70;;;;;;5029052;28;20049;-81
2021/11/29 02:45:33;;;;;;;0.30;0.30;;;6.70;89.80;;;;;;5022734;28;20030;-81
2021/11/29 02:47:59;;;;;;;0.65;0.65;;;6.70;90.00;;;;;;5029488;28;20784;-81
2021/11/29 02:50:24;;;;;;;0.30;0.30;;;6.60;90.00;;;;;;5028730;28;20117;-82
2021/11/29 02:52:50;;;;;;;0.40;0.40;;;6.60;90.00;;;;;;5026736;28;20084;-81
2021/11/29 02:55:16;;;;;;;1.20;0.50;;;6.60;90.10;;;;;;5033646;28;20068;-81
2021/11/29 02:57:42;;;;;;;0.38;0.38;;;6.60;90.10;;;;;;5026818;28;20060;-81
2021/11/29 03:00:11;;;;;;;0.30;0.30;;;6.60;90.10;;;;;;5028337;28;20167;-81
2021/11/29 03:02:37;;;;;;;0.50;0.50;;;6.60;90.10;;;;;;5025908;28;20033;-81
2021/11/29 03:05:03;;;;;;;0.40;0.40;;;6.60;90.10;;;;;;5025803;28;20029;-82
2021/11/29 03:07:30;;;;;;;0.40;0.40;;;6.60;90.20;;;;;;5031134;28;20022;-81
2021/11/29 03:09:56;;;;;;;0.43;0.43;;;6.50;90.20;;;;;;5030567;28;20037;-82
2021/11/29 03:12:22;;;;;;;1.85;0.57;;;6.60;90.20;;;;;;5028917;28;20034;-81
2021/11/29 03:14:48;;;;;;;0.82;0.65;;;6.60;90.20;;;;;;5033378;28;20385;-81
2021/11/29 03:17:15;;;;;;;1.20;0.82;;;6.70;90.20;;;;;;5031194;28;20090;-81
2021/11/29 03:19:41;;;;;;;9.70;1.08;;;6.60;90.20;;;;;;5022308;28;20029;-81
2021/11/29 03:22:10;;;;;;;1.10;0.73;;;6.70;90.20;;;;;;5028605;28;20598;-82
2021/11/29 03:24:37;;;;;;;1.58;0.50;;;6.70;90.20;;;;;;5024160;28;20108;-81
2021/11/29 03:27:04;;;;;;;1.45;0.50;;;6.70;90.10;;;;;;5029552;28;20045;-81
2021/11/29 03:29:30;;;;;;;1.85;0.63;;;6.80;90.20;;;;;;5030205;28;20025;-81
2021/11/29 03:31:59;;;;;;;3.92;0.82;;;6.80;90.10;;;;;;5022089;28;20080;-81
2021/11/29 03:34:25;;;;;;;5.53;1.10;;;6.90;90.10;;;;;;5027055;28;20033;-82
2021/11/29 03:36:51;;;;;;;0.55;0.55;;;6.90;90.10;;;;;;5014865;28;20036;-83
2021/11/29 03:39:23;;;;;;;0.98;0.60;;;7.00;90.00;;;;;;5028182;28;20037;-82
2021/11/29 03:41:51;;;;;;;4.03;0.63;;;7.00;90.10;;;;;;5026067;28;20038;-82
2021/11/29 03:44:17;;;;;;;1.40;0.77;;;7.10;90.30;;;;;;5030815;28;20030;-82
2021/11/29 03:46:44;;;;;;;0.50;0.50;;;7.10;90.00;;;;;;5032013;28;20052;-82
2021/11/29 03:49:10;;;;;;;1.27;0.50;;;7.10;90.00;;;;;;5030477;28;20029;-82
2021/11/29 03:51:36;;;;;;;0.85;0.45;;;7.10;90.00;;;;;;5030032;28;20056;-81
2021/11/29 03:54:02;;;;;;;0.70;0.70;;;7.10;90.00;;;;;;5025656;28;20080;-82
2021/11/29 03:56:28;;;;;;;0.60;0.60;;;7.10;90.00;;;;;;5020719;28;20014;-82
2021/11/29 03:58:54;;;;;;;1.10;0.60;;;7.10;90.00;;;;;;5020151;28;20032;-82
2021/11/29 04:01:19;;;;;;;5.05;0.60;;;7.10;90.00;;;;;;5026267;28;20037;-82
2021/11/29 04:03:45;;;;;;;0.93;0.52;;;7.00;89.90;;;;;;5022518;28;20115;-82
2021/11/29 04:06:11;;;;;;;1.60;0.68;;;7.00;89.90;;;;;;5022320;28;20064;-82
2021/11/29 04:08:37;;;;;;;1.17;0.40;;;7.00;90.00;;;;;;5022431;28;20049;-81
2021/11/29 04:11:03;;;;;;;0.40;0.40;;;7.00;90.00;;;;;;5025286;28;20032;-82
2021/11/29 04:13:29;;;;;;;2.03;0.50;;;7.00;90.00;;;;;;5026043;28;20485;-83
2021/11/29 04:15:55;;;;;;;1.08;0.40;;;7.00;90.00;;;;;;5024203;28;20037;-81
2021/11/29 04:18:20;;;;;;;1.50;0.50;;;7.00;90.00;;;;;;5031624;28;20061;-82
2021/11/29 04:20:47;;;;;;;0.50;0.50;;;7.00;90.00;;;;;;5031305;28;20033;-81
2021/11/29 04:23:12;;;;;;;2.15;0.68;;;7.00;90.10;;;;;;5029474;28;20042;-81
2021/11/29 04:25:48;;;;;;;1.02;0.40;;;7.00;90.10;;;;;;5021059;28;20026;-83
2021/11/29 04:28:14;;;;;;;0.88;0.88;;;7.00;90.10;;;;;;5026051;28;20046;-81
2021/11/29 04:30:40;;;;;;;3.90;0.80;;;7.00;90.10;;;;;;5029589;28;20028;-82
2021/11/29 04:33:05;;;;;;;1.33;0.50;;;7.00;90.10;;;;;;5030502;28;20037;-82
2021/11/29 04:35:31;;;;;;;1.95;0.90;;;7.00;90.10;;;;;;5025673;28;20486;-82
2021/11/29 04:37:57;;;;;;;1.08;0.50;;;7.00;90.10;;;;;;5021199;28;20025;-82
2021/11/29 04:40:23;;;;;;;2.60;0.60;;;7.10;90.10;;;;;;5019142;28;20505;-82
2021/11/29 04:42:51;;;;;;;0.40;0.40;;;7.00;90.10;;;;;;5025541;28;20037;-82
2021/11/29 04:45:17;;;;;;;0.52;0.52;;;7.10;90.40;;;;;;5025831;28;20035;-81
2021/11/29 04:47:43;;;;;;;0.90;0.43;;;7.10;90.00;;;;;;5025166;28;20157;-81
2021/11/29 04:50:09;;;;;;;1.65;0.60;;;7.10;90.00;;;;;;5029919;28;20034;-83
2021/11/29 04:52:35;;;;;;;0.50;0.50;;;7.10;90.00;;;;;;5029985;28;20084;-81
2021/11/29 04:55:03;;;;;;;0.65;0.50;;;7.10;90.00;;;;;;5023062;28;20516;-81
2021/11/29 04:57:28;;;;;;;1.25;0.57;;;7.10;89.90;;;;;;5029500;28;20025;-81
2021/11/29 04:59:55;;;;;;;1.58;0.95;;;7.10;89.80;;;;;;5019289;28;20466;-81
2021/11/29 05:02:21;;;;;;;0.63;0.63;;;7.10;89.70;;;;;;5026773;28;20428;-81
2021/11/29 05:04:47;;;;;;;1.38;1.10;;;7.10;89.60;;;;;;5025860;28;20034;-82
2021/11/29 05:07:14;;;;;;;1.00;0.88;;;7.10;89.50;;;;;;5032258;28;20034;-82
2021/11/29 05:09:43;;;;;;;1.92;0.98;;;7.10;89.40;;;;;;5017199;28;20120;-82
2021/11/29 05:12:10;;;;;;;0.95;0.85;;;7.10;89.30;;;;;;5021119;28;20026;-82
2021/11/29 05:14:36;;;;;;;1.25;1.00;;;7.10;89.30;;;;;;5031181;28;20034;-82
2021/11/29 05:17:02;;;;;;;2.17;1.40;;;7.10;89.20;;;;;;5022723;28;20071;-81
2021/11/29 05:19:28;;;;;;;1.95;0.95;;;7.10;89.20;;;;;;5020249;28;20139;-81
2021/11/29 05:21:53;;;;;;;1.52;1.20;;;7.10;89.10;;;;;;5029240;28;20151;-82
2021/11/29 05:24:19;;;;;;;1.73;1.25;;;7.10;89.00;;;;;;5015144;28;20473;-82
2021/11/29 05:26:45;;;;;;;3.08;1.50;;;7.10;88.80;;;;;;5030589;28;20041;-82
2021/11/29 05:29:14;;;;;;;2.17;1.58;;;7.10;88.70;;;;;;5019515;28;20034;-81
2021/11/29 05:31:41;;;;;;;1.92;1.45;;;7.10;88.70;;;;;;5030074;28;20436;-81
2021/11/29 05:34:06;;;;;;;1.98;1.40;;;7.00;88.50;;;;;;5024593;28;20106;-82
2021/11/29 05:36:32;;;;;;;2.47;1.77;;;7.10;89.20;;;;;;5025544;28;20029;-80
2021/11/29 05:38:58;;;;;;;3.40;1.95;;;7.10;88.60;;;;;;5025369;28;20030;-81
2021/11/29 05:41:24;;;;;;;2.38;1.80;;;7.10;88.70;;;;;;5031043;28;20025;-81
2021/11/29 05:43:49;;;;;;;3.78;1.75;;;7.10;88.70;;;;;;5024218;28;20112;-81
2021/11/29 05:46:21;;;;;;;5.00;2.17;;;7.10;88.80;;;;;;5027694;28;20033;-81
2021/11/29 05:48:47;;;;;;;4.50;2.65;;;7.10;88.80;;;;;;5031333;28;20080;-82
2021/11/29 05:51:13;;;;;;;7.25;3.17;;;7.10;88.80;;;;;;5028515;28;20465;-81
2021/11/29 05:53:39;;;;;;;6.57;3.25;;;7.10;88.80;;;;;;5023375;28;20099;-82
2021/11/29 05:56:06;;;;;;;7.18;3.60;;;7.10;88.80;;;;;;5030630;28;20076;-81
2021/11/29 05:58:32;;;;;;;7.70;3.85;;;7.10;88.80;;;;;;5028257;28;20041;-81
2021/11/29 06:00:58;;;;;;;7.07;3.92;;;7.10;88.80;;;;;;5025019;28;20479;-82
2021/11/29 06:03:24;;;;;;;10.25;4.10;;;7.00;88.70;;;;;;5021450;28;20017;-82
2021/11/29 06:05:50;;;;;;;6.15;3.42;;;7.00;88.60;;;;;;5028840;28;20155;-82
2021/11/29 06:08:16;;;;;;;6.97;3.55;;;7.00;88.60;;;;;;5030466;28;20112;-83
2021/11/29 06:10:41;;;;;;;7.05;4.05;;;7.00;88.60;;;;;;5018869;28;20026;-82
2021/11/29 06:13:10;;;;;;;7.15;3.75;;;7.00;88.50;;;;;;5024716;28;20143;-82
2021/11/29 06:15:35;;;;;;;9.63;3.95;;;7.00;88.40;;;;;;5024247;28;20033;-85
2021/11/29 06:18:01;;;;;;;9.80;4.68;;;7.00;88.30;;;;;;5033954;28;20026;-76
2021/11/29 06:20:27;;;;;;;7.03;3.70;;;7.10;88.30;;;;;;5027159;28;20074;-81
2021/11/29 06:22:55;;;;;;;4.85;2.78;;;7.00;88.00;;;;;;5030146;28;20025;-77
2021/11/29 06:25:22;;;;;;;6.15;2.83;;;7.00;87.90;;;;;;5032695;28;20128;-78
2021/11/29 06:27:49;;;;;;;10.18;2.97;;;7.00;87.70;;;;;;5030046;28;20133;-79
2021/11/29 06:30:16;;;;;;;6.32;2.63;;;7.00;87.50;;;;;;5021786;28;20033;-78
2021/11/29 06:32:43;;;;;;;4.72;2.58;;;6.90;87.30;;;;;;5031748;28;20029;-78
2021/11/29 06:35:10;;;;;;;4.53;2.58;;;6.90;87.20;;;;;;5026982;28;20048;-79
2021/11/29 06:37:37;;;;;;;5.10;2.33;;;6.90;87.00;;;;;;5030227;28;20033;-79
2021/11/29 06:40:08;;;;;;;7.90;3.95;;;6.90;86.80;;;;;;5027420;28;20638;-79
2021/11/29 06:42:34;;;;;;;5.25;2.88;;;6.90;86.70;;;;;;5028872;28;20040;-81
2021/11/29 06:44:59;;;;;;;4.93;2.95;;;6.90;86.60;;;;;;5023863;28;20433;-79
2021/11/29 06:47:25;;;;;;;7.28;3.65;;;6.90;86.50;;;;;;5029114;28;20044;-79
2021/11/29 06:49:51;;;;;;;5.50;3.13;;;6.90;86.40;;;;;;5027065;28;21365;-79
2021/11/29 06:52:18;;;;;;;5.90;3.45;;;6.80;86.30;;;;;;5022663;28;20045;-78
2021/11/29 06:54:47;;;;;;;5.75;3.65;;;6.80;86.20;;;;;;5015061;28;20030;-74
2021/11/29 06:57:15;;;;;;;7.20;4.05;;;6.80;86.10;;;;;;5031088;28;20128;-79
2021/11/29 06:59:40;;;;;;;6.50;3.95;;;6.70;85.90;;;;;;5030377;28;20374;-76
2021/11/29 07:02:06;;;;;;;5.18;3.20;;;6.70;86.00;;;;;;5030938;28;20037;-76
2021/11/29 07:04:33;;;;;;;6.13;3.25;;;6.70;86.10;;;;;;5027379;28;20033;-78
2021/11/29 07:06:59;;;;;;;3.88;2.70;;;6.70;86.00;;;;;;5028966;28;20389;-78
2021/11/29 07:09:25;;;;;;;6.18;3.08;;;6.70;85.90;;;;;;5018724;28;20606;-77
2021/11/29 07:11:51;;;;;;;6.13;3.00;;;6.70;85.90;;;;;;5018034;28;20465;-85
2021/11/29 07:14:17;;;;;;;3.88;2.60;;;6.70;86.00;;;;;;5019946;28;20069;-80
2021/11/29 07:16:48;;;;;;;4.50;2.53;;;6.70;85.90;;;;;;5031209;28;20477;-85
2021/11/29 07:19:14;;;;;;;4.25;2.63;;;6.70;85.70;;;;;;5029642;28;20029;-78
2021/11/29 07:21:40;;;;;;;4.45;2.60;;;6.70;85.70;;;;;;5016954;28;20044;-82
2021/11/29 07:24:07;;;;;;;4.15;2.30;;;6.60;85.60;;;;;;5026602;28;20104;-77
2021/11/29 07:26:32;;;;;;;6.03;3.03;;;6.70;85.70;;;;;;5026105;28;20112;-78
2021/11/29 07:28:58;;;;;;;6.35;3.33;;;6.70;85.70;;;;;;5018192;28;20088;-80
2021/11/29 07:31:23;;;;;;;4.50;2.75;;;6.60;85.70;;;;;;5031008;28;20025;-85
2021/11/29 07:33:49;;;;;;;4.15;2.25;;;6.60;85.80;;;;;;5032961;28;20048;-77
2021/11/29 07:36:15;;;;;;;7.85;2.35;;;6.60;85.80;;;;;;5019587;28;20056;-77
2021/11/29 07:38:41;;;;;;;4.05;2.22;;;6.60;86.00;;;;;;5025214;28;20025;-77
2021/11/29 07:41:06;;;;;;;4.55;2.67;;;6.60;86.00;;;;;;5025895;28;20080;-77
2021/11/29 07:43:32;;;;;;;5.63;2.72;;;6.60;86.00;;;;;;5028607;28;20030;-77
2021/11/29 07:45:58;;;;;;;5.60;2.70;;;6.60;86.00;;;;;;5024147;28;20025;-77
2021/11/29 07:48:23;;;;;;;5.72;2.67;;;6.60;86.10;;;;;;5028039;28;20036;-77
2021/11/29 07:50:49;;;;;;;4.90;2.65;;;6.50;86.10;;;;;;5022711;28;20366;-77
2021/11/29 07:53:15;;;;;;;6.43;3.17;;;6.50;86.10;;;;;;5031436;28;20191;-76
2021/11/29 07:55:40;;;;;;;5.97;3.05;;;6.50;86.20;;;;;;5028334;28;20041;-77
2021/11/29 07:58:06;;;;;;;4.43;2.50;;;6.50;86.20;;;;;;5023709;28;20041;-77
2021/11/29 08:00:36;;;;;;;4.65;2.40;;;6.40;86.20;;;;;;5029232;28;20112;-77
2021/11/29 08:03:04;;;;;;;4.55;2.63;;;6.40;86.20;;;;;;5031414;28;20033;-76
2021/11/29 08:05:31;;;;;;;6.82;3.10;;;6.40;86.30;;;;;;5019893;28;20025;-77
2021/11/29 08:07:58;;;;;;;5.60;2.85;;;6.40;86.30;;;;;;5031761;28;20034;-76
2021/11/29 08:10:24;;;;;;;6.07;2.88;;;6.40;86.30;;;;;;5032416;28;20040;-77
2021/11/29 08:12:51;;;;;;;10.40;2.97;;;6.40;86.30;;;;;;5027324;28;20370;-77
2021/11/29 08:15:18;;;;;;;5.05;2.65;;;6.40;86.80;;;;;;5028800;28;20026;-80
2021/11/29 08:17:43;;;;;;;26.42;4.00;;;6.40;86.20;;;;;;5021264;28;20502;-81
2021/11/29 08:20:10;;;;;;;12.02;4.20;;;6.40;86.20;;;;;;5028535;28;20029;-81
2021/11/29 08:22:36;;;;;;;6.05;2.60;;;6.40;86.30;;;;;;5025306;28;20041;-84
2021/11/29 08:25:03;;;;;;;5.85;2.78;;;6.30;86.30;;;;;;5036989;28;20029;-84
2021/11/29 08:27:29;;;;;;;4.80;2.30;;;6.40;86.40;;;;;;5032464;28;20029;-75
2021/11/29 08:29:55;;;;;;;4.25;2.25;;;6.30;86.40;;;;;;5016956;28;20485;-79
2021/11/29 08:32:20;;;;;;;4.95;2.85;;;6.30;86.50;;;;;;5032189;28;20369;-78
2021/11/29 08:34:49;;;;;;;5.88;2.72;;;6.40;86.60;;;;;;5020082;28;20057;-78
2021/11/29 08:37:14;;;;;;;11.00;3.58;;;6.30;86.70;;;;;;5029642;28;20124;-77
2021/11/29 08:39:40;;;;;;;5.78;2.97;;;6.30;86.80;;;;;;5019893;28;20116;-78
2021/11/29 08:42:07;;;;;;;7.28;2.97;;;6.30;86.90;;;;;;5029438;28;20045;-77
2021/11/29 08:44:32;;;;;;;8.00;3.08;;;6.40;87.10;;;;;;5029487;28;20057;-71
2021/11/29 08:46:59;;;;;;;12.15;3.38;;;6.40;87.10;;;;;;5030401;28;20080;-75
2021/11/29 08:49:25;;;;;;;6.55;3.42;;;6.40;87.30;;;;;;5017517;28;20037;-76
2021/11/29 08:51:53;;;;;;;6.95;3.60;;;6.50;87.40;;;;;;5024408;28;20055;-79
2021/11/29 08:54:19;;;;;;;7.13;2.80;;;6.50;87.50;;;;;;5028953;28;20493;-75
2021/11/29 08:56:46;;;;;;;9.80;4.05;;;6.50;88.20;;;;;;5029978;28;20032;-76
2021/11/29 08:59:14;;;;;;;7.05;3.28;;;6.50;87.70;;;;;;5026565;28;20042;-77
2021/11/29 09:01:39;;;;;;;9.50;3.50;;;6.60;87.80;;;;;;5031440;28;20021;-75
2021/11/29 09:04:05;;;;;;;7.22;3.75;;;6.60;87.80;;;;;;5030408;28;20041;-76
2021/11/29 09:06:31;;;;;;;4.95;3.10;;;6.60;88.40;;;;;;5027037;28;20068;-76
2021/11/29 09:08:56;;;;;;;5.57;3.03;;;6.60;87.80;;;;;;5023166;28;20029;-76
2021/11/29 09:11:22;;;;;;;6.53;3.13;;;6.70;87.90;;;;;;5028047;28;20041;-76
2021/11/29 09:13:48;;;;;;;5.47;2.95;;;6.70;87.90;;;;;;5027932;28;20034;-76
2021/11/29 09:16:16;;;;;;;6.57;3.33;;;6.80;87.90;;;;;;5019736;28;20544;-76
2021/11/29 09:18:42;;;;;;;16.73;3.53;;;6.80;87.90;;;;;;5028118;28;20038;-76
2021/11/29 09:21:11;;;;;;;5.93;3.15;;;6.80;87.90;;;;;;5031097;28;20038;-77
2021/11/29 09:23:37;;;;;;;8.65;3.13;;;6.80;87.90;;;;;;5022028;28;20041;-77
2021/11/29 09:26:03;;;;;;;5.00;2.92;;;6.90;88.60;;;;;;5022984;28;20568;-76
2021/11/29 09:28:29;;;;;;;6.72;3.47;;;6.80;88.00;;;;;;5027243;28;20036;-78
2021/11/29 09:30:55;;;;;;;6.13;3.05;;;6.90;88.20;;;;;;5026875;28;20029;-76
2021/11/29 09:33:21;;;;;;;6.95;3.58;;;6.90;88.20;;;;;;5027468;28;20042;-78
2021/11/29 09:35:47;;;;;;;5.95;3.25;;;7.00;88.20;;;;;;5023935;28;20069;-77
2021/11/29 09:38:14;;;;;;;6.65;3.17;;;7.00;88.30;;;;;;5024982;28;20037;-78
2021/11/29 09:40:41;;;;;;;8.82;4.20;;;7.00;88.30;;;;;;5026300;28;20030;-76
2021/11/29 09:43:11;;;;;;;9.60;3.05;;;7.10;88.30;;;;;;5023896;28;20114;-77
2021/11/29 09:45:40;;;;;;;6.90;3.72;;;7.10;88.30;;;;;;5026270;28;20493;-77
2021/11/29 09:48:07;;;;;;;10.70;4.25;;;7.10;88.30;;;;;;5023977;28;20048;-78
2021/11/29 09:50:34;;;;;;;8.15;3.60;;;7.10;88.30;;;;;;5029093;28;20120;-77
2021/11/29 09:52:59;;;;;;;6.55;2.80;;;7.20;88.50;;;;;;5030289;28;20404;-76
2021/11/29 09:55:27;;;;;;;6.95;3.10;;;7.10;88.40;;;;;;5031581;28;20025;-77
2021/11/29 09:57:54;;;;;;;7.05;3.88;;;7.20;88.50;;;;;;5032253;28;20044;-77
2021/11/29 10:00:23;;;;;;;7.80;3.45;;;7.20;88.50;;;;;;5015443;28;20034;-78
2021/11/29 10:02:50;;;;;;;5.57;3.42;;;7.20;88.70;;;;;;5028113;28;20033;-78
2021/11/29 10:05:18;;;;;;;6.13;3.85;;;7.20;88.70;;;;;;5025376;28;20488;-77
2021/11/29 10:07:51;;;;;;;8.15;3.63;;;7.20;88.60;;;;;;5030638;28;20030;-77
2021/11/29 10:10:28;;;;;;;6.88;3.63;;;7.20;88.30;;;;;;5034056;28;20152;-77
2021/11/29 10:12:58;;;;;;;5.57;2.92;;;7.20;88.10;;;;;;5032030;28;20037;-77
2021/11/29 10:15:30;;;;;;;4.97;2.90;;;7.20;87.80;;;;;;5032744;28;20036;-78
2021/11/29 10:18:29;;;;;;;6.28;3.28;;;7.10;87.50;;;;;;5024583;28;20030;-77
2021/11/29 10:21:07;;;;;;;9.43;3.50;;;7.10;87.60;;;;;;5026562;28;20508;-77
2021/11/29 10:23:37;;;;;;;5.97;2.70;;;7.00;87.70;;;;;;5030761;28;20034;-76
2021/11/29 10:26:11;;;;;;;6.05;2.75;;;7.00;87.50;;;;;;5027196;28;20399;-76
2021/11/29 10:28:40;;;;;;;6.38;3.10;;;7.00;87.30;;;;;;5026674;28;20041;-76
2021/11/29 10:31:13;;;;;;;6.88;3.17;;;6.90;87.30;;;;;;5027889;28;20105;-76
2021/11/29 10:33:57;;;;;;;6.10;2.10;;;6.90;87.40;;;;;;5027219;28;20037;-76
2021/11/29 10:36:26;;;;;;;8.27;3.38;;;6.80;87.30;;;;;;5024495;28;20037;-74
2021/11/29 10:38:58;;;;;;;8.05;3.20;;;6.80;87.50;;;;;;5027441;28;20465;-74
2021/11/29 10:41:30;;;;;;;7.07;3.67;;;6.80;87.70;;;;;;5033043;28;20079;-78
2021/11/29 10:43:56;;;;;;;7.10;3.00;;;6.80;88.00;;;;;;5026383;28;20041;-78
2021/11/29 10:46:31;;;;;;;3.55;2.47;;;6.80;88.00;;;;;;5028866;28;20377;-78
2021/11/29 10:48:59;;;;;;;6.25;3.20;;;6.80;88.00;;;;;;5020833;28;20037;-77
2021/11/29 10:51:26;;;;;;;5.97;2.90;;;6.80;88.00;;;;;;5029020;28;20037;-80
2021/11/29 10:53:57;;;;;;;5.55;2.55;;;6.80;88.10;;;;;;5018530;28;20076;-83
2021/11/29 10:56:25;;;;;;;4.68;2.20;;;6.80;88.10;;;;;;5029591;28;20492;-75
2021/11/29 10:58:52;;;;;;;5.40;2.50;;;6.80;88.20;;;;;;5021332;28;20041;-76
2021/11/29 11:01:32;;;;;;;5.30;2.92;;;6.70;88.30;;;;;;5033502;28;20041;-78
2021/11/29 11:03:58;;;;;;;5.75;2.40;;;6.80;88.60;;;;;;5027657;28;20033;-78
2021/11/29 11:06:38;;;;;;;5.38;3.13;;;6.70;88.50;;;;;;5029918;28;20021;-77
2021/11/29 11:09:34;;;;;;;7.43;3.08;;;6.80;88.80;;;;;;5024785;28;20045;-77
2021/11/29 11:12:05;;;;;;;6.50;3.35;;;6.80;88.90;;;;;;5025337;28;20489;-78
2021/11/29 11:14:37;;;;;;;4.95;3.03;;;6.70;88.80;;;;;;5027305;28;20477;-77
2021/11/29 11:17:09;;;;;;;4.75;2.75;;;6.80;88.90;;;;;;5030045;28;20029;-76
2021/11/29 11:19:45;;;;;;;3.63;2.58;;;6.90;89.00;;;;;;5028913;28;20112;-78
2021/11/29 11:22:25;;;;;;;4.93;2.65;;;6.90;88.90;;;;;;5032072;28;20120;-78
2021/11/29 11:25:01;;;;;;;7.32;2.60;;;6.90;88.90;;;;;;5023377;28;20033;-78
2021/11/29 11:27:32;;;;;;;6.60;2.88;;;6.90;88.90;;;;;;5028913;28;20052;-79
2021/11/29 11:30:16;;;;;;;8.35;2.38;;;6.90;89.00;;;;;;5030779;28;20120;-78
2021/11/29 11:32:47;;;;;;;;;;;6.90;89.00;;;;;;5029984;28;20547;-77
2021/11/29 11:35:19;;;;;;;3.50;2.30;;;6.90;89.10;;;;;;5025423;28;19915;-78
2021/11/29 11:37:51;;;;;;;7.07;2.78;;;6.90;89.20;;;;;;5031168;28;20087;-79
2021/11/29 11:40:19;;;;;;;5.53;2.58;;;6.90;89.50;;;;;;5024206;28;20083;-80
2021/11/29 11:42:47;;;;;;;2.60;1.50;;;6.90;90.10;;;;;;5029863;28;20116;-77
2021/11/29 11:45:16;;;;;;;7.45;2.25;;;6.90;89.90;;;;;;5027694;28;20029;-77
2021/11/29 11:47:43;;;;;;;3.75;2.15;;;6.90;90.10;;;;;;5022642;28;20041;-69
2021/11/29 11:50:11;;;;;;;2.63;1.50;;;6.90;90.50;;;;;;5031393;28;20034;-78
2021/11/29 11:52:37;;;;;;;1.55;1.33;;;6.90;90.40;;;;;;5028749;28;20037;-79
2021/11/29 11:55:05;;;;;;;3.28;1.92;;;6.90;90.50;;;;;;5027417;28;20084;-78
2021/11/29 11:57:32;;;;;;;1.92;1.10;;;6.90;90.60;;;;;;5028211;28;20029;-79
2021/11/29 12:00:18;;;;;;;3.88;1.95;;;6.90;90.70;;;;;;5028191;28;20037;-81
2021/11/29 12:02:45;;;;;;;1.85;1.13;;;6.90;90.90;;;;;;5028626;28;20117;-78
2021/11/29 12:05:16;;;;;;;2.70;1.85;;;7.00;90.90;;;;;;5027276;28;20532;-80
2021/11/29 12:07:43;;;;;;;3.42;1.70;;;7.00;91.10;;;;;;5030774;28;20026;-78
2021/11/29 12:10:27;;;;;;;4.13;2.03;;;7.10;91.20;;;;;;5026518;28;20036;-79
2021/11/29 12:12:55;;;;;;;;;;;7.10;91.20;;;;;;5030769;28;20380;-80
2021/11/29 12:15:45;;;;;;;8.63;3.20;;;7.10;91.20;;;;;;5028565;28;19996;-79
2021/11/29 12:18:35;;;;;;;3.15;2.00;;;7.20;91.30;;;;;;5028621;28;20034;-79
2021/11/29 12:21:17;;;;;;;5.20;2.90;;;7.20;91.30;;;;;;5026149;28;20040;-78
2021/11/29 12:24:09;;;;;;;6.43;3.38;;;7.30;91.30;;;;;;5025843;28;20037;-79
2021/11/29 12:26:44;;;;;;;5.03;2.75;;;7.30;91.30;;;;;;5027807;28;20480;-79
2021/11/29 12:29:22;;;;;;;5.22;2.63;;;7.40;91.30;;;;;;5024805;28;20045;-78
2021/11/29 12:32:03;;;;;;;4.88;2.63;;;7.50;91.30;;;;;;5028040;28;20033;-78
2021/11/29 12:34:47;;;;;;;2.90;2.08;;;7.60;91.20;;;;;;5025634;28;20532;-77
2021/11/29 12:37:24;;;;;;;5.70;2.47;;;7.70;91.20;;;;;;5025617;28;20037;-79
2021/11/29 12:39:50;;;;;;;5.70;2.47;;;7.80;91.20;;;;;;5027904;28;20037;-78
2021/11/29 12:42:19;;;;;;;3.92;2.20;;;7.90;91.20;;;;;;5025196;28;20038;-79
2021/11/29 12:44:49;;;;;;;3.40;2.00;;;8.00;91.10;;;;;;5028480;28;20078;-82
2021/11/29 12:47:23;;;;;;;2.75;1.90;;;8.00;91.10;;;;;;5030450;28;20025;-76
2021/11/29 12:49:50;;;;;;;2.03;1.40;;;8.20;91.10;;;;;;5027133;28;20425;-77
2021/11/29 12:52:40;;;;;;;3.45;2.30;;;8.30;91.10;;;;;;5029669;28;20065;-77
2021/11/29 12:55:29;;;;;;;3.20;2.78;;;8.40;91.10;;;;;;5017489;28;20485;-77
2021/11/29 12:58:06;;;;;;;3.30;2.28;;;8.40;90.90;;;;;;5029175;28;20064;-78
2021/11/29 13:00:35;;;;;;;5.20;2.70;;;8.50;90.80;;;;;;5021184;28;20025;-77
2021/11/29 13:03:03;;;;;;;5.50;2.30;;;8.50;90.70;;;;;;5030295;28;20036;-77